Terminal Aerodrome Forecast
Issued by NWS Wilmington, OH

Home | Current Version | Previous Version | Text Only | Print | Product List | Glossary On
Versions: 1 2 3 4 5 6 7 8 9 10 11 12 13 14 15 16 17 18 19 20 21 22
000
FTUS41 KILN 041727
TAFILN
TAF
KILN 041727Z 0418/0518 27009KT P6SM SCT050
     FM050000 31004KT P6SM BKN300
     FM050900 VRB02KT 4SM BR BKN300
     FM051200 VRB03KT P6SM BKN300=

USA.gov is the U.S. government's official web portal to all federal, state and local government web resources and services.